createdAt,value
2019-01-27T00:00:19.849Z,9.7
2019-01-27T00:01:29.881Z,9.64
2019-01-27T00:02:39.995Z,9.62
2019-01-27T00:03:50.056Z,9.71
2019-01-27T00:05:00.187Z,9.8
2019-01-27T00:06:10.019Z,9.72
2019-01-27T00:07:20.326Z,9.77
2019-01-27T00:08:30.482Z,9.74
2019-01-27T00:09:40.310Z,9.71
2019-01-27T00:10:50.416Z,9.71
2019-01-27T00:12:00.499Z,9.84
2019-01-27T00:13:10.582Z,9.82
2019-01-27T00:14:20.655Z,9.84
2019-01-27T00:15:30.766Z,9.84
2019-01-27T00:16:40.857Z,9.88
2019-01-27T00:17:51.037Z,9.88
2019-01-27T00:19:01.205Z,9.84
2019-01-27T00:20:11.568Z,9.81
2019-01-27T00:21:21.686Z,9.77
2019-01-27T00:22:31.572Z,9.75
2019-01-27T00:23:41.640Z,9.88
2019-01-27T00:24:51.464Z,9.81
2019-01-27T00:26:01.308Z,9.82
2019-01-27T00:27:11.235Z,9.88
2019-01-27T00:28:21.304Z,9.84
2019-01-27T00:29:31.383Z,9.85
2019-01-27T00:30:41.218Z,9.85
2019-01-27T00:31:51.410Z,9.85
2019-01-27T00:33:01.504Z,9.81
2019-01-27T00:34:11.570Z,9.84
2019-01-27T00:35:21.388Z,9.88
2019-01-27T00:36:31.676Z,9.95
2019-01-27T00:37:56.440Z,9.82
2019-01-27T00:39:08.953Z,9.85
2019-01-27T00:40:18.787Z,9.84
2019-01-27T00:41:29.053Z,9.84
2019-01-27T00:42:39.414Z,9.84
2019-01-27T00:43:49.550Z,9.84
2019-01-27T00:44:59.631Z,9.82
2019-01-27T00:46:09.708Z,9.74
2019-01-27T00:47:19.787Z,9.74
2019-01-27T00:48:29.600Z,9.84
2019-01-27T00:49:39.401Z,9.81
2019-01-27T00:50:49.493Z,9.72
2019-01-27T00:51:59.595Z,9.75
2019-01-27T00:53:09.684Z,9.72
2019-01-27T00:54:19.796Z,9.63
2019-01-27T00:55:29.906Z,9.62
2019-01-27T00:56:39.702Z,9.6
2019-01-27T00:57:49.807Z,9.6
2019-01-27T00:58:59.881Z,9.5
2019-01-27T01:00:10.370Z,9.55
2019-01-27T01:01:20.433Z,9.45
2019-01-27T01:02:30.549Z,9.38
2019-01-27T01:03:40.369Z,9.38
2019-01-27T01:04:50.179Z,9.32
2019-01-27T01:06:03.554Z,9.24
2019-01-27T01:07:13.335Z,9.27
2019-01-27T01:08:23.415Z,9.19
2019-01-27T01:09:33.291Z,9.19
2019-01-27T01:10:43.365Z,9.23
2019-01-27T01:11:53.462Z,9.24
2019-01-27T01:13:03.577Z,9.17
2019-01-27T01:14:13.658Z,9.17
2019-01-27T01:15:23.968Z,9.16
2019-01-27T01:16:34.073Z,9.11
2019-01-27T01:17:44.138Z,9.08
2019-01-27T01:18:54.202Z,9.04
2019-01-27T01:20:04.267Z,9.12
2019-01-27T01:21:14.339Z,9.01
2019-01-27T01:22:24.409Z,9.05
2019-01-27T01:23:34.221Z,8.97
2019-01-27T01:24:44.278Z,8.9
2019-01-27T01:25:54.368Z,9
2019-01-27T01:27:04.490Z,8.94
2019-01-27T01:28:14.548Z,8.92
2019-01-27T01:29:24.621Z,8.89
2019-01-27T01:30:34.677Z,8.92
2019-01-27T01:31:44.753Z,8.8
2019-01-27T01:32:54.299Z,8.76
2019-01-27T01:34:04.622Z,8.9
2019-01-27T01:35:14.678Z,8.8
2019-01-27T01:36:25.003Z,8.8
2019-01-27T01:37:35.261Z,8.77
2019-01-27T01:38:45.173Z,8.72
2019-01-27T01:39:55.231Z,8.72
2019-01-27T01:41:05.282Z,8.65
2019-01-27T01:42:15.396Z,8.62
2019-01-27T01:43:25.468Z,8.57
2019-01-27T01:44:35.534Z,8.54
2019-01-27T01:45:45.635Z,8.5
2019-01-27T01:46:55.706Z,8.62
2019-01-27T01:48:06.497Z,8.44
2019-01-27T01:49:16.309Z,8.42
2019-01-27T01:50:26.164Z,8.46
2019-01-27T01:51:35.986Z,8.36
2019-01-27T01:52:46.041Z,8.46
2019-01-27T01:53:55.846Z,8.35
2019-01-27T01:55:06.232Z,8.25
2019-01-27T01:56:16.029Z,8.26
2019-01-27T01:57:26.117Z,8.25
2019-01-27T01:58:36.058Z,8.21
2019-01-27T01:59:46.185Z,8.19
2019-01-27T02:00:56.235Z,8.13
2019-01-27T02:02:06.364Z,8.07
2019-01-27T02:03:16.174Z,8.07
2019-01-27T02:04:26.232Z,8.1
2019-01-27T02:05:36.303Z,7.96
2019-01-27T02:06:46.091Z,8.03
2019-01-27T02:07:56.162Z,7.96
2019-01-27T02:09:06.567Z,7.96
2019-01-27T02:10:16.632Z,7.86
2019-01-27T02:11:26.738Z,7.89
2019-01-27T02:12:36.804Z,7.83
2019-01-27T02:13:46.617Z,7.86
2019-01-27T02:14:56.720Z,7.8
2019-01-27T02:16:06.799Z,7.8
2019-01-27T02:17:16.981Z,7.73
2019-01-27T02:18:26.880Z,7.7
2019-01-27T02:19:36.968Z,7.7
2019-01-27T02:20:46.787Z,7.67
2019-01-27T02:21:56.846Z,7.63
2019-01-27T02:23:06.677Z,7.64
2019-01-27T02:24:16.739Z,7.64
2019-01-27T02:25:26.789Z,7.63
2019-01-27T02:26:36.825Z,7.61
2019-01-27T02:27:46.883Z,7.54
2019-01-27T02:28:57.048Z,7.56
2019-01-27T02:30:06.934Z,7.52
2019-01-27T02:31:17.040Z,7.54
2019-01-27T02:32:27.149Z,7.54
2019-01-27T02:33:37.226Z,7.64
2019-01-27T02:34:47.108Z,7.55
2019-01-27T02:35:57.190Z,7.51
2019-01-27T02:37:07.261Z,7.52
2019-01-27T02:38:17.318Z,7.56
2019-01-27T02:39:27.424Z,7.55
2019-01-27T02:40:37.535Z,7.59
2019-01-27T02:41:47.607Z,7.54
2019-01-27T02:42:57.703Z,7.48
2019-01-27T02:44:07.761Z,7.48
2019-01-27T02:45:17.583Z,7.54
2019-01-27T02:46:27.728Z,7.41
2019-01-27T02:47:37.803Z,7.39
2019-01-27T02:48:47.849Z,7.36
2019-01-27T02:49:57.911Z,7.34
2019-01-27T02:51:07.764Z,7.36
2019-01-27T02:52:17.870Z,7.31
2019-01-27T02:53:27.979Z,7.39
2019-01-27T02:54:38.037Z,7.33
2019-01-27T02:55:48.095Z,7.22
2019-01-27T02:56:58.382Z,7.26
2019-01-27T02:58:08.460Z,7.23
2019-01-27T02:59:18.510Z,7.26
2019-01-27T03:00:28.319Z,7.22
2019-01-27T03:01:38.385Z,7.26
2019-01-27T03:02:53.355Z,7.13
2019-01-27T03:34:36.591Z,4.36
2019-01-27T03:35:46.510Z,4.18
2019-01-27T03:36:57.396Z,4.21
2019-01-27T03:38:08.418Z,4.29
2019-01-27T03:39:18.379Z,4.33
2019-01-27T03:40:28.507Z,4.2
2019-01-27T03:41:38.790Z,4.44
2019-01-27T03:42:48.901Z,4.38
2019-01-27T03:43:58.696Z,4.48
2019-01-27T03:45:11.113Z,4.64
2019-01-27T03:46:21.383Z,4.65
2019-01-27T03:47:31.443Z,4.85
2019-01-27T03:48:40.988Z,4.9
2019-01-27T03:49:51.061Z,5.03
2019-01-27T03:51:01.282Z,5.1
2019-01-27T03:52:11.603Z,5.2
2019-01-27T03:53:21.410Z,5.24
2019-01-27T03:54:31.463Z,5.3
2019-01-27T03:55:41.534Z,5.37
2019-01-27T03:56:51.603Z,5.46
2019-01-27T03:58:03.782Z,5.46
2019-01-27T03:59:13.393Z,5.49
2019-01-27T04:00:23.264Z,5.48
2019-01-27T04:01:33.358Z,5.62
2019-01-27T04:02:43.432Z,5.57
2019-01-27T04:03:53.519Z,5.62
2019-01-27T04:05:03.684Z,5.55
2019-01-27T04:06:13.479Z,5.7
2019-01-27T04:07:23.290Z,5.73
2019-01-27T04:08:33.456Z,5.67
2019-01-27T04:09:43.510Z,5.77
2019-01-27T04:10:53.825Z,5.75
2019-01-27T04:12:03.900Z,5.72
2019-01-27T04:13:13.735Z,5.75
2019-01-27T04:14:23.802Z,5.8
2019-01-27T04:15:33.934Z,5.72
2019-01-27T04:16:43.987Z,5.78
2019-01-27T04:17:53.761Z,5.82
2019-01-27T04:19:04.258Z,5.84
2019-01-27T04:20:14.329Z,5.85
2019-01-27T04:21:24.503Z,5.81
2019-01-27T04:22:34.545Z,5.87
2019-01-27T04:23:45.066Z,5.87
2019-01-27T04:24:54.885Z,5.89
2019-01-27T04:26:05.129Z,5.91
2019-01-27T04:27:15.182Z,5.92
2019-01-27T04:28:25.239Z,5.84
2019-01-27T04:29:35.087Z,5.85
2019-01-27T04:30:45.131Z,5.84
2019-01-27T04:31:55.196Z,5.91
2019-01-27T04:33:05.968Z,5.89
2019-01-27T04:34:16.066Z,5.78
2019-01-27T04:35:26.169Z,5.75
2019-01-27T04:36:36.226Z,5.81
2019-01-27T04:37:46.049Z,5.78
2019-01-27T04:38:56.111Z,5.88
2019-01-27T04:40:06.169Z,5.8
2019-01-27T04:41:16.488Z,5.81
2019-01-27T04:42:26.551Z,5.81
2019-01-27T04:43:36.351Z,5.82
2019-01-27T04:44:46.422Z,5.72
2019-01-27T04:45:56.476Z,5.8
2019-01-27T04:47:06.549Z,5.8
2019-01-27T04:48:16.832Z,5.72
2019-01-27T04:49:26.918Z,5.75
2019-01-27T04:50:36.470Z,5.67
2019-01-27T04:51:46.522Z,5.6
2019-01-27T04:52:56.583Z,5.66
2019-01-27T04:54:06.659Z,5.63
2019-01-27T04:55:16.763Z,5.63
2019-01-27T04:56:26.563Z,5.54
2019-01-27T04:57:36.618Z,5.46
2019-01-27T04:58:46.752Z,5.48
2019-01-27T04:59:56.564Z,5.52
2019-01-27T05:01:06.823Z,5.51
2019-01-27T05:02:16.622Z,5.34
2019-01-27T05:03:26.681Z,5.39
2019-01-27T05:04:37.014Z,5.42
2019-01-27T05:05:46.870Z,5.37
2019-01-27T05:06:56.932Z,5.34
2019-01-27T05:08:08.388Z,5.23
2019-01-27T05:09:18.733Z,5.28
2019-01-27T05:10:28.781Z,5.2
2019-01-27T05:11:38.834Z,5.1
2019-01-27T05:12:48.899Z,5.13
2019-01-27T05:13:59.006Z,4.98
2019-01-27T05:15:08.814Z,4.98
2019-01-27T05:16:18.891Z,5
2019-01-27T05:17:28.954Z,5.05
2019-01-27T05:18:39.008Z,4.91
2019-01-27T05:19:49.167Z,4.79
2019-01-27T05:20:58.962Z,4.95
2019-01-27T05:22:09.654Z,4.87
2019-01-27T05:23:19.702Z,4.87
2019-01-27T05:24:29.758Z,4.88
2019-01-27T05:25:39.815Z,4.85
2019-01-27T05:26:49.882Z,4.78
2019-01-27T05:27:59.942Z,4.78
2019-01-27T05:29:09.991Z,4.85
2019-01-27T05:30:20.050Z,4.76
2019-01-27T05:31:30.180Z,4.71
2019-01-27T05:32:40.238Z,4.68
2019-01-27T05:33:49.779Z,4.72
2019-01-27T05:34:59.579Z,4.71
2019-01-27T05:36:09.619Z,4.61
2019-01-27T05:37:19.462Z,4.61
2019-01-27T05:38:29.257Z,4.58
2019-01-27T05:39:39.324Z,4.57
2019-01-27T05:40:49.376Z,4.5
2019-01-27T05:41:59.434Z,4.47
2019-01-27T05:43:09.524Z,4.42
2019-01-27T05:44:19.069Z,4.4
2019-01-27T05:45:29.127Z,4.42
2019-01-27T05:46:39.179Z,4.38
2019-01-27T05:47:48.992Z,4.35
2019-01-27T05:48:59.354Z,4.29
2019-01-27T05:50:10.226Z,4.26
2019-01-27T05:51:20.499Z,4.18
2019-01-27T05:52:30.293Z,4.21
2019-01-27T05:53:40.111Z,4.24
2019-01-27T05:54:50.213Z,4.26
2019-01-27T05:56:01.387Z,4.2
2019-01-27T05:57:11.237Z,4.2
2019-01-27T05:58:21.323Z,4.15
2019-01-27T05:59:31.156Z,4.04
2019-01-27T06:00:40.993Z,4
2019-01-27T06:01:51.051Z,3.94
2019-01-27T06:03:01.415Z,3.99
2019-01-27T06:04:11.652Z,3.85
2019-01-27T06:05:21.907Z,3.92
2019-01-27T06:06:31.776Z,3.86
2019-01-27T06:07:41.601Z,3.71
2019-01-27T06:08:51.684Z,3.61
2019-01-27T06:10:01.507Z,3.66
2019-01-27T06:11:11.566Z,3.54
2019-01-27T06:12:21.611Z,3.6
2019-01-27T06:13:31.674Z,3.49
2019-01-27T06:14:41.731Z,3.37
2019-01-27T06:15:51.793Z,3.34
2019-01-27T06:17:02.400Z,3.32
2019-01-27T06:18:12.454Z,3.2
2019-01-27T06:19:22.518Z,3.19
2019-01-27T06:20:32.635Z,3.14
2019-01-27T06:21:42.448Z,3.08
2019-01-27T06:22:52.512Z,3.03
2019-01-27T06:24:16.939Z,2.91
2019-01-27T06:25:28.838Z,2.9
2019-01-27T06:26:38.920Z,2.84
2019-01-27T06:27:49.038Z,2.76
2019-01-27T06:28:58.932Z,2.77
2019-01-27T06:30:10.581Z,2.73
2019-01-27T06:31:20.642Z,2.72
2019-01-27T06:32:30.692Z,2.65
2019-01-27T06:33:40.752Z,2.78
2019-01-27T06:34:50.563Z,2.59
2019-01-27T06:36:01.366Z,2.6
2019-01-27T06:37:11.476Z,2.72
2019-01-27T06:38:21.569Z,2.69
2019-01-27T06:39:31.875Z,2.63
2019-01-27T06:40:41.977Z,2.6
2019-01-27T06:41:52.089Z,2.67
2019-01-27T06:43:02.403Z,2.63
2019-01-27T06:44:12.205Z,2.62
2019-01-27T06:45:22.755Z,2.58
2019-01-27T06:46:32.818Z,2.59
2019-01-27T06:47:42.956Z,2.58
2019-01-27T06:48:52.803Z,2.63
2019-01-27T06:50:04.324Z,2.66
2019-01-27T06:51:14.117Z,2.59
2019-01-27T06:52:24.169Z,2.63
2019-01-27T06:53:34.287Z,2.67
2019-01-27T06:54:44.326Z,2.73
2019-01-27T06:55:54.624Z,2.63
2019-01-27T06:57:06.005Z,2.73
2019-01-27T06:58:16.037Z,2.66
2019-01-27T06:59:26.146Z,2.7
2019-01-27T07:00:36.205Z,2.73
2019-01-27T07:01:46.015Z,2.77
2019-01-27T07:02:56.078Z,2.6
2019-01-27T07:04:06.114Z,2.76
2019-01-27T07:05:16.169Z,2.76
2019-01-27T07:06:26.217Z,2.69
2019-01-27T07:07:36.419Z,2.73
2019-01-27T07:08:46.523Z,2.73
2019-01-27T07:09:56.675Z,2.8
2019-01-27T07:11:08.285Z,2.81
2019-01-27T07:12:18.590Z,2.76
2019-01-27T07:13:28.386Z,2.8
2019-01-27T07:14:38.176Z,2.91
2019-01-27T07:15:48.290Z,3.01
2019-01-27T07:16:58.127Z,2.96
2019-01-27T07:18:08.961Z,3.06
2019-01-27T07:19:18.759Z,2.99
2019-01-27T07:20:28.593Z,3.09
2019-01-27T07:21:38.654Z,2.96
2019-01-27T07:22:48.713Z,2.96
2019-01-27T07:23:58.761Z,2.99
2019-01-27T07:25:09.870Z,2.99
2019-01-27T07:26:19.655Z,3.03
2019-01-27T07:27:29.706Z,3.14
2019-01-27T07:28:39.698Z,3.17
2019-01-27T07:29:49.504Z,3.39
2019-01-27T07:30:59.572Z,3.3
2019-01-27T07:32:09.656Z,3.37
2019-01-27T07:33:19.782Z,3.45
2019-01-27T07:34:29.865Z,3.34
2019-01-27T07:35:39.944Z,3.42
2019-01-27T07:36:50.015Z,3.39
2019-01-27T07:37:59.816Z,3.54
2019-01-27T07:39:09.857Z,3.49
2019-01-27T07:40:19.676Z,3.58
2019-01-27T07:41:29.510Z,3.53
2019-01-27T07:42:39.575Z,3.56
2019-01-27T07:43:49.384Z,3.63
2019-01-27T07:44:59.459Z,3.69
2019-01-27T07:46:09.301Z,3.79
2019-01-27T07:47:19.420Z,3.75
2019-01-27T07:48:29.476Z,3.79
2019-01-27T07:49:39.739Z,3.85
2019-01-27T07:50:49.857Z,3.89
2019-01-27T07:51:59.693Z,3.99
2019-01-27T07:53:09.768Z,3.94
2019-01-27T07:54:19.831Z,4.04
2019-01-27T07:55:29.884Z,3.94
2019-01-27T07:56:39.965Z,3.86
2019-01-27T07:57:50.062Z,3.97
2019-01-27T07:58:59.852Z,4.02
2019-01-27T08:00:10.169Z,3.97
2019-01-27T08:01:20.686Z,4
2019-01-27T08:02:30.512Z,4.1
2019-01-27T08:03:40.606Z,4.15
2019-01-27T08:04:50.656Z,4.14
2019-01-27T08:06:00.711Z,4.17
2019-01-27T08:07:10.773Z,4.18
2019-01-27T08:08:20.892Z,4.2
2019-01-27T08:09:30.956Z,4.17
2019-01-27T08:10:41.280Z,4.2
2019-01-27T08:11:51.094Z,4.29
2019-01-27T08:13:01.450Z,4.29
2019-01-27T08:14:11.265Z,4.33
2019-01-27T08:15:21.060Z,4.18
2019-01-27T08:16:31.350Z,4.28
2019-01-27T08:17:41.421Z,4.22
2019-01-27T08:18:51.488Z,4.26
2019-01-27T08:20:01.790Z,4.18
2019-01-27T08:21:11.860Z,4.14
2019-01-27T08:22:21.932Z,4.15
2019-01-27T08:23:32.031Z,4.26
2019-01-27T08:24:41.859Z,4.17
2019-01-27T08:25:51.927Z,4.32
2019-01-27T08:27:02.005Z,4.3
2019-01-27T08:28:12.068Z,4.48
2019-01-27T08:29:22.155Z,4.51
2019-01-27T08:30:32.329Z,4.5
2019-01-27T08:31:42.173Z,4.46
2019-01-27T08:32:51.983Z,4.6
2019-01-27T08:34:02.044Z,4.56
2019-01-27T08:35:12.117Z,4.51
2019-01-27T08:36:21.982Z,4.5
2019-01-27T08:37:32.684Z,4.5
2019-01-27T08:38:42.744Z,4.46
2019-01-27T08:39:52.611Z,4.47
2019-01-27T08:41:02.716Z,4.46
2019-01-27T08:42:13.056Z,4.47
2019-01-27T08:43:23.161Z,4.65
2019-01-27T08:44:33.235Z,4.6
2019-01-27T08:45:43.295Z,4.71
2019-01-27T08:46:53.163Z,4.72
2019-01-27T08:48:03.208Z,4.65
2019-01-27T08:49:13.254Z,4.76
2019-01-27T08:50:23.372Z,4.76
2019-01-27T08:51:32.933Z,4.88
2019-01-27T08:52:43.029Z,5
2019-01-27T08:53:53.336Z,5.06
2019-01-27T08:55:03.410Z,5.33
2019-01-27T08:56:13.472Z,5.48
2019-01-27T08:57:23.538Z,5.82
2019-01-27T08:58:33.355Z,5.87
2019-01-27T08:59:42.935Z,5.95
2019-01-27T09:00:53.025Z,5.87
2019-01-27T09:02:03.496Z,5.96
2019-01-27T09:03:13.603Z,5.82
2019-01-27T09:04:23.651Z,5.73
2019-01-27T09:05:33.737Z,5.62
2019-01-27T09:06:43.774Z,5.54
2019-01-27T09:07:53.855Z,5.51
2019-01-27T09:09:03.900Z,5.59
2019-01-27T09:10:14.123Z,5.73
2019-01-27T09:11:24.188Z,5.69
2019-01-27T09:12:34.525Z,5.55
2019-01-27T09:13:45.104Z,5.49
2019-01-27T09:14:56.416Z,5.55
2019-01-27T09:16:07.436Z,5.34
2019-01-27T09:17:18.080Z,5.3
2019-01-27T09:18:28.463Z,5.44
2019-01-27T09:19:39.056Z,5.36
2019-01-27T09:20:50.315Z,5.46
2019-01-27T09:22:01.454Z,5.31
2019-01-27T09:23:12.561Z,5.39
2019-01-27T09:24:23.046Z,5.37
2019-01-27T09:25:33.680Z,5.24
2019-01-27T09:26:43.753Z,5.39
2019-01-27T09:27:54.071Z,5.69
2019-01-27T09:29:04.143Z,6.03
2019-01-27T09:30:14.231Z,6.31
2019-01-27T09:31:24.042Z,6.49
2019-01-27T09:32:34.116Z,6.75
2019-01-27T09:33:44.195Z,7
2019-01-27T09:34:54.027Z,7.21
2019-01-27T09:36:04.093Z,7.37
2019-01-27T09:37:14.127Z,7.59
2019-01-27T09:38:24.219Z,7.91
2019-01-27T09:39:34.599Z,8.29
2019-01-27T09:40:44.738Z,8.61
2019-01-27T09:41:54.785Z,8.8
2019-01-27T09:43:05.465Z,8.94
2019-01-27T09:44:15.771Z,8.79
2019-01-27T09:45:25.862Z,8.46
2019-01-27T09:46:35.927Z,8.47
2019-01-27T09:47:46.004Z,8.64
2019-01-27T09:48:55.826Z,8.36
2019-01-27T09:50:08.426Z,8.03
2019-01-27T09:51:18.502Z,7.96
2019-01-27T09:52:28.736Z,7.75
2019-01-27T09:53:38.291Z,7.51
2019-01-27T09:54:48.476Z,7.22
2019-01-27T09:55:58.570Z,7.09
2019-01-27T09:57:08.381Z,7.01
2019-01-27T09:58:19.913Z,7.03
2019-01-27T09:59:29.996Z,7.11
2019-01-27T10:00:40.126Z,7
2019-01-27T10:01:50.219Z,6.8
2019-01-27T10:03:00.074Z,6.68
2019-01-27T10:04:09.929Z,6.6
2019-01-27T10:05:20.053Z,6.57
2019-01-27T10:06:30.117Z,6.47
2019-01-27T10:07:39.910Z,6.57
2019-01-27T10:08:49.762Z,6.68
2019-01-27T10:09:59.842Z,6.78
2019-01-27T10:11:10.923Z,6.85
2019-01-27T10:12:21.011Z,6.79
2019-01-27T10:13:31.088Z,6.88
2019-01-27T10:14:40.909Z,6.93
2019-01-27T10:15:51.035Z,7.01
2019-01-27T10:17:01.134Z,7.09
2019-01-27T10:18:10.999Z,7.15
2019-01-27T10:19:21.062Z,7.16
2019-01-27T10:20:31.120Z,7.12
2019-01-27T10:21:41.337Z,7.18
2019-01-27T10:22:51.898Z,7.05
2019-01-27T10:24:01.926Z,7.11
2019-01-27T10:25:18.465Z,7.01
2019-01-27T10:26:28.544Z,7.01
2019-01-27T10:27:38.913Z,6.95
2019-01-27T10:28:49.030Z,7.01
2019-01-27T10:29:59.217Z,6.98
2019-01-27T10:31:09.059Z,7.03
2019-01-27T10:32:19.130Z,6.91
2019-01-27T10:33:29.274Z,7.04
2019-01-27T10:34:39.349Z,7.08
2019-01-27T10:35:49.421Z,7.22
2019-01-27T10:36:59.504Z,7.4
2019-01-27T10:38:09.590Z,7.54
2019-01-27T10:39:19.700Z,7.55
2019-01-27T10:40:29.758Z,7.63
2019-01-27T10:41:45.267Z,7.61
2019-01-27T10:42:55.330Z,7.52
2019-01-27T10:44:05.994Z,7.51
2019-01-27T10:45:16.141Z,7.51
2019-01-27T10:46:26.217Z,7.39
2019-01-27T10:47:36.274Z,7.41
2019-01-27T10:48:46.367Z,7.44
2019-01-27T10:49:56.598Z,7.33
2019-01-27T10:51:08.963Z,7.27
2019-01-27T10:52:19.062Z,7.16
2019-01-27T10:53:36.882Z,7.12
2019-01-27T10:54:47.418Z,7.08
2019-01-27T10:55:57.546Z,7.09
2019-01-27T10:57:07.711Z,7.12
2019-01-27T10:58:17.523Z,7.09
2019-01-27T10:59:27.603Z,7.01
2019-01-27T11:00:37.740Z,7
2019-01-27T11:01:47.552Z,6.91
2019-01-27T11:02:57.634Z,6.95
2019-01-27T11:04:07.715Z,6.97
2019-01-27T11:05:17.799Z,7.04
2019-01-27T11:06:27.909Z,6.93
2019-01-27T11:07:37.807Z,6.8
2019-01-27T11:08:47.381Z,6.67
2019-01-27T11:09:57.719Z,6.64
2019-01-27T11:11:07.867Z,6.54
2019-01-27T11:12:17.952Z,6.58
2019-01-27T11:13:28.010Z,6.49
2019-01-27T11:14:38.182Z,6.44
2019-01-27T11:15:48.343Z,6.47
2019-01-27T11:16:58.516Z,6.33
2019-01-27T11:18:08.354Z,6.43
2019-01-27T11:19:18.426Z,6.31
2019-01-27T11:20:28.788Z,6.36
2019-01-27T11:21:45.780Z,6.33
2019-01-27T11:22:55.849Z,6.36
2019-01-27T11:24:05.672Z,6.51
2019-01-27T11:25:15.758Z,6.46
2019-01-27T11:26:25.663Z,6.57
2019-01-27T11:27:38.044Z,6.54
2019-01-27T11:28:47.871Z,6.68
2019-01-27T11:29:57.939Z,6.72
2019-01-27T11:31:08.974Z,6.78
2019-01-27T11:32:19.111Z,6.68
2019-01-27T11:33:28.939Z,6.76
2019-01-27T11:34:39.124Z,6.82
2019-01-27T11:35:49.232Z,6.79
2019-01-27T11:36:59.145Z,6.82
2019-01-27T11:38:10.807Z,6.79
2019-01-27T11:39:20.634Z,6.78
2019-01-27T11:40:30.914Z,6.73
2019-01-27T11:41:41.010Z,6.79
2019-01-27T11:42:51.084Z,6.76
2019-01-27T11:44:01.377Z,6.8
2019-01-27T11:45:11.442Z,6.83
2019-01-27T11:46:21.322Z,6.82
2019-01-27T11:47:31.654Z,6.83
2019-01-27T11:48:41.463Z,6.82
2019-01-27T11:52:20.468Z,6.79
2019-01-27T11:53:30.566Z,6.82
2019-01-27T11:54:40.666Z,6.8
2019-01-27T11:55:50.735Z,6.73
2019-01-27T11:57:01.310Z,6.8
2019-01-27T11:58:11.418Z,6.67
2019-01-27T11:59:21.495Z,6.7
2019-01-27T12:00:31.764Z,6.78
2019-01-27T12:01:41.591Z,6.78
2019-01-27T12:02:51.916Z,6.95
2019-01-27T12:04:02.043Z,6.98
2019-01-27T12:05:12.128Z,6.97
2019-01-27T12:06:22.243Z,7.01
2019-01-27T12:07:32.651Z,6.98
2019-01-27T12:08:42.729Z,7
2019-01-27T12:09:52.811Z,6.97
2019-01-27T12:11:02.963Z,6.98
2019-01-27T12:12:13.008Z,6.88
2019-01-27T12:13:23.159Z,6.8
2019-01-27T12:14:33.346Z,6.78
2019-01-27T12:15:44.042Z,6.82
2019-01-27T12:16:53.870Z,6.8
2019-01-27T12:18:03.683Z,6.83
2019-01-27T12:19:14.029Z,6.82
2019-01-27T12:20:23.845Z,6.9
2019-01-27T12:21:33.917Z,6.95
2019-01-27T12:22:43.975Z,7
2019-01-27T12:23:54.752Z,6.97
2019-01-27T12:25:05.675Z,7.01
2019-01-27T12:26:15.746Z,6.9
2019-01-27T12:27:25.055Z,6.78
2019-01-27T12:28:35.164Z,6.79
2019-01-27T12:29:45.477Z,6.64
2019-01-27T12:30:55.310Z,6.73
2019-01-27T12:32:06.257Z,6.76
2019-01-27T12:33:16.331Z,6.67
2019-01-27T12:34:26.433Z,6.72
2019-01-27T12:35:36.508Z,6.7
2019-01-27T12:36:46.562Z,6.58
2019-01-27T12:37:56.646Z,6.55
2019-01-27T12:39:08.641Z,6.57
2019-01-27T12:40:17.943Z,6.49
2019-01-27T12:41:28.032Z,6.51
2019-01-27T12:42:38.326Z,6.54
2019-01-27T12:43:48.401Z,6.54
2019-01-27T12:44:58.484Z,6.54
2019-01-27T12:46:09.710Z,6.58
2019-01-27T12:47:19.584Z,6.54
2019-01-27T12:48:30.457Z,6.54
2019-01-27T12:49:40.301Z,6.4
2019-01-27T12:50:50.386Z,6.44
2019-01-27T12:52:02.551Z,6.44
2019-01-27T12:53:12.613Z,6.49
2019-01-27T12:54:22.725Z,6.33
2019-01-27T12:55:32.863Z,6.37
2019-01-27T12:56:42.963Z,6.47
2019-01-27T12:57:53.978Z,6.37
2019-01-27T12:59:04.122Z,6.44
2019-01-27T13:00:13.698Z,6.39
2019-01-27T13:01:24.016Z,6.4
2019-01-27T13:02:34.120Z,6.4
2019-01-27T13:03:44.224Z,6.43
2019-01-27T13:04:54.772Z,6.26
2019-01-27T13:06:04.876Z,6.26
2019-01-27T13:07:14.983Z,6.21
2019-01-27T13:08:25.926Z,6.2
2019-01-27T13:09:36.199Z,6.1
2019-01-27T13:10:46.005Z,6.14
2019-01-27T13:11:56.107Z,6.17
2019-01-27T13:13:06.245Z,6.15
2019-01-27T13:14:19.607Z,6.13
2019-01-27T13:15:29.748Z,6.05
2019-01-27T13:16:39.690Z,5.98
2019-01-27T13:17:49.792Z,6.06
2019-01-27T13:18:59.893Z,6.05
2019-01-27T13:20:11.535Z,6.09
2019-01-27T13:21:21.348Z,6.18
2019-01-27T13:22:31.698Z,6.09
2019-01-27T13:23:41.747Z,6.1
2019-01-27T13:24:51.820Z,6.07
2019-01-27T13:26:03.880Z,6.1
2019-01-27T13:27:14.069Z,6.13
2019-01-27T13:28:24.305Z,6.1
2019-01-27T13:29:34.410Z,6.13
2019-01-27T13:30:44.502Z,6.02
2019-01-27T13:31:54.672Z,6.14
2019-01-27T13:33:08.223Z,6.13
2019-01-27T13:34:18.061Z,6.15
2019-01-27T13:35:28.182Z,6.07
2019-01-27T13:36:38.023Z,6.14
2019-01-27T13:37:48.142Z,6.15
2019-01-27T13:38:58.477Z,6.14
2019-01-27T13:40:09.183Z,6.17
2019-01-27T13:41:19.250Z,6.15
2019-01-27T13:42:29.311Z,5.98
2019-01-27T13:43:39.435Z,6.05
2019-01-27T13:44:49.513Z,5.96
2019-01-27T13:45:59.571Z,5.99
2019-01-27T13:47:09.406Z,5.99
2019-01-27T13:48:19.515Z,6
2019-01-27T13:49:29.615Z,5.91
2019-01-27T13:50:39.679Z,5.98
2019-01-27T13:51:49.718Z,5.96
2019-01-27T13:52:59.581Z,5.88
2019-01-27T13:54:09.647Z,5.91
2019-01-27T13:55:19.700Z,5.87
2019-01-27T13:56:29.507Z,5.82
2019-01-27T13:57:39.596Z,5.84
2019-01-27T13:58:49.690Z,5.78
2019-01-27T13:59:59.757Z,5.78
2019-01-27T14:01:09.826Z,5.75
2019-01-27T14:02:19.741Z,5.8
2019-01-27T14:03:30.150Z,5.78
2019-01-27T14:04:40.236Z,5.73
2019-01-27T14:05:56.267Z,5.77
2019-01-27T14:07:08.786Z,5.75
2019-01-27T14:08:18.703Z,5.8
2019-01-27T14:09:29.005Z,5.78
2019-01-27T14:10:39.055Z,5.72
2019-01-27T14:11:48.872Z,5.72
2019-01-27T14:12:59.170Z,5.66
2019-01-27T14:14:09.318Z,5.63
2019-01-27T14:15:19.405Z,5.6
2019-01-27T14:16:29.464Z,5.7
2019-01-27T14:17:39.273Z,5.64
2019-01-27T14:18:49.408Z,5.55
2019-01-27T14:19:59.211Z,5.55
2019-01-27T14:21:16.289Z,5.52
2019-01-27T14:22:28.146Z,5.55
2019-01-27T14:23:38.330Z,5.51
2019-01-27T14:24:48.419Z,5.44
2019-01-27T14:25:58.602Z,5.44
2019-01-27T14:27:10.714Z,5.45
2019-01-27T14:28:20.875Z,5.49
2019-01-27T14:29:30.983Z,5.46
2019-01-27T14:30:41.051Z,5.42
2019-01-27T14:31:51.139Z,5.46
2019-01-27T14:33:01.244Z,5.51
2019-01-27T14:34:11.369Z,5.46
2019-01-27T14:35:21.474Z,5.51
2019-01-27T14:36:31.548Z,5.39
2019-01-27T14:37:41.389Z,5.49
2019-01-27T14:38:51.204Z,5.45
2019-01-27T14:40:01.013Z,5.42
2019-01-27T14:41:11.256Z,5.41
2019-01-27T14:42:21.412Z,5.41
2019-01-27T14:43:31.495Z,5.44
2019-01-27T14:44:41.597Z,5.37
2019-01-27T14:45:51.572Z,5.37
2019-01-27T14:47:01.717Z,5.42
2019-01-27T14:48:11.816Z,5.36
2019-01-27T14:49:21.629Z,5.41
2019-01-27T14:50:31.702Z,5.31
2019-01-27T14:51:41.818Z,5.36
2019-01-27T14:52:51.658Z,5.31
2019-01-27T14:54:01.540Z,5.34
2019-01-27T14:55:11.603Z,5.36
2019-01-27T14:56:21.701Z,5.3
2019-01-27T14:57:31.806Z,5.27
2019-01-27T14:58:41.920Z,5.31
2019-01-27T14:59:52.671Z,5.31
2019-01-27T15:01:02.538Z,5.28
2019-01-27T15:02:12.775Z,5.27
2019-01-27T15:03:22.899Z,5.28
2019-01-27T15:04:32.742Z,5.37
2019-01-27T15:05:42.850Z,5.3
2019-01-27T15:06:53.200Z,5.31
2019-01-27T15:08:03.269Z,5.23
2019-01-27T15:09:13.368Z,5.26
2019-01-27T15:10:23.503Z,5.27
2019-01-27T15:11:33.791Z,5.27
2019-01-27T15:12:43.919Z,5.18
2019-01-27T15:13:54.010Z,5.2
2019-01-27T15:15:04.696Z,5.02
2019-01-27T15:16:14.577Z,5.18
2019-01-27T15:17:24.813Z,5.08
2019-01-27T15:18:34.913Z,5.15
2019-01-27T15:19:45.050Z,5.12
2019-01-27T15:20:55.154Z,5.06
2019-01-27T15:22:05.299Z,5.06
2019-01-27T15:23:15.150Z,5.02
2019-01-27T15:24:25.273Z,5
2019-01-27T15:25:35.478Z,5.08
2019-01-27T15:26:45.576Z,4.97
2019-01-27T15:27:55.712Z,5.03
2019-01-27T15:29:06.179Z,4.97
2019-01-27T15:30:16.717Z,4.98
2019-01-27T15:31:27.038Z,4.94
2019-01-27T15:32:36.894Z,5
2019-01-27T15:33:46.975Z,4.98
2019-01-27T15:34:57.101Z,4.79
2019-01-27T15:36:08.812Z,4.9
2019-01-27T15:37:18.924Z,4.85
2019-01-27T15:38:29.171Z,4.68
2019-01-27T15:39:39.030Z,4.74
2019-01-27T15:40:49.165Z,4.64
2019-01-27T15:41:59.345Z,4.53
2019-01-27T15:43:10.902Z,4.5
2019-01-27T15:44:20.714Z,4.47
2019-01-27T15:45:30.793Z,4.48
2019-01-27T15:46:40.911Z,4.33
2019-01-27T15:47:51.093Z,4.4
2019-01-27T15:49:01.168Z,4.32
2019-01-27T15:50:11.246Z,4.28
2019-01-27T15:51:21.317Z,4.18
2019-01-27T15:52:31.410Z,4.26
2019-01-27T15:53:41.530Z,4.2
2019-01-27T15:54:51.637Z,4.14
2019-01-27T15:56:02.449Z,4.15
2019-01-27T15:57:12.539Z,4.18
2019-01-27T15:58:22.936Z,4.12
2019-01-27T15:59:33.075Z,4.07
2019-01-27T16:00:43.227Z,4.11
2019-01-27T16:01:53.152Z,4.04
2019-01-27T16:03:04.508Z,4.08
2019-01-27T16:04:14.391Z,4
2019-01-27T16:05:24.590Z,4.07
2019-01-27T16:06:34.460Z,4.07
2019-01-27T16:07:44.564Z,4.02
2019-01-27T16:08:54.696Z,4.07
2019-01-27T16:10:04.869Z,4.1
2019-01-27T16:11:15.115Z,3.96
2019-01-27T16:12:25.225Z,4